ADDS METAR Data INFO
IDs: Format: Raw Decoded Include TAF

Data at: 0155 UTC 19 Jul 2018

KECU 190135Z AUTO 15007KT 10SM CLR 34/10 A3001 RMK AO2
KECU 190115Z AUTO 15008KT 10SM CLR 34/10 A3000 RMK AO2
KECU 190055Z AUTO 16010KT 10SM CLR 35/10 A3000 RMK AO2
KECU 190035Z AUTO 14006KT 10SM CLR 36/10 A3000 RMK AO2
KECU 190015Z AUTO 13007KT 10SM CLR 36/10 A3000 RMK AO2
KECU 182355Z AUTO 15009G15KT 10SM CLR 36/10 A3000 RMK AO2
KECU 182335Z AUTO 12008G14KT 10SM CLR 36/10 A3001 RMK AO2
KECU 182315Z AUTO 14006G13KT 10SM CLR 37/11 A3001 RMK AO2
KECU 182255Z AUTO 12005G13KT 10SM CLR 37/10 A3002 RMK AO2
KECU 182235Z AUTO 13007G13KT 10SM CLR 37/11 A3002 RMK AO2
KECU 182215Z AUTO VRB04G12KT 10SM CLR 37/11 A3002 RMK AO2
KECU 182155Z AUTO 14007G12KT 10SM CLR 38/11 A3003 RMK AO2
KECU 182135Z AUTO VRB03G14KT 10SM CLR 37/10 A3003 RMK AO2
KECU 182115Z AUTO 11008G14KT 080V140 10SM CLR 37/11 A3004 RMK AO2
KECU 182055Z AUTO VRB05G10KT 10SM CLR 36/11 A3005 RMK AO2
KECU 182035Z AUTO 13010G15KT 10SM CLR 37/12 A3006 RMK AO2
KECU 182015Z AUTO 12007G13KT 10SM CLR 36/12 A3007 RMK AO2
KECU 181955Z AUTO 16007KT 10SM CLR 36/12 A3007 RMK AO2
KECU 181935Z AUTO VRB06KT 10SM CLR 35/13 A3008 RMK AO2
KECU 181915Z AUTO 20006G15KT 10SM CLR 35/13 A3009 RMK AO2
KECU 181855Z AUTO 21007KT 120V260 10SM CLR 35/14 A3010 RMK AO2
KECU 181835Z AUTO 18007G13KT 10SM CLR 34/14 A3011 RMK AO2
KECU 181815Z AUTO 18007G13KT 150V220 10SM CLR 35/15 A3011 RMK AO2
KECU 181755Z AUTO 18008KT 130V230 10SM CLR 34/16 A3012 RMK AO2
KECU 181735Z AUTO 17009KT 10SM CLR 33/17 A3013 RMK AO2
KECU 181715Z AUTO 20007G12KT 10SM CLR 33/17 A3013 RMK AO2
KECU 181655Z AUTO 19009KT 150V220 10SM CLR 33/17 A3014 RMK AO2
KECU 181635Z AUTO VRB06G14KT 10SM CLR 32/18 A3014 RMK AO2
KECU 181615Z AUTO 20006KT 10SM CLR 31/18 A3014 RMK AO2
KECU 181555Z AUTO 22007KT 10SM CLR 30/19 A3014 RMK AO2
KECU 181535Z AUTO 17010KT 10SM CLR 30/19 A3014 RMK AO2
KECU 181515Z AUTO 19008G13KT 10SM CLR 29/20 A3015 RMK AO2
KECU 181455Z AUTO 17008KT 10SM CLR 28/20 A3015 RMK AO2
KECU 181435Z AUTO VRB06G11KT 10SM CLR 28/20 A3016 RMK AO2
KECU 181415Z AUTO 17010KT 10SM CLR 27/20 A3016 RMK AO2
KECU 181355Z AUTO 18010KT 10SM CLR 26/21 A3016 RMK AO2
KECU 181335Z AUTO 17007KT 9SM CLR 25/21 A3016 RMK AO2
KECU 181315Z AUTO 17008KT 8SM CLR 24/22 A3015 RMK AO2
KECU 181255Z AUTO 15005KT 6SM BR FEW004 23/22 A3015 RMK AO2
KECU 181235Z AUTO 16006KT 6SM BR FEW003 23/22 A3015 RMK AO2
KECU 181215Z AUTO 16006KT 6SM BR CLR 22/22 A3015 RMK AO2
KECU 181155Z AUTO 15007KT 6SM BR FEW005 FEW048 23/22 A3015 RMK AO2
KECU 181135Z AUTO 16007KT 9SM FEW005 FEW049 FEW060 23/22 A3014 RMK AO2
KECU 181115Z AUTO 17007KT 10SM SCT060 23/22 A3014 RMK AO2
KECU 181055Z AUTO 17006KT 10SM FEW055 FEW065 23/22 A3014 RMK AO2
KECU 181035Z AUTO 16006KT 10SM BKN050 BKN060 23/22 A3015 RMK AO2
KECU 181015Z AUTO 16006KT 10SM FEW035 BKN050 BKN055 23/22 A3014 RMK AO2
KECU 180955Z AUTO 15008KT 10SM FEW037 FEW046 BKN055 24/22 A3014 RMK AO2
KECU 180935Z AUTO 16008KT 10SM FEW043 BKN055 24/22 A3015 RMK AO2
KECU 180915Z AUTO 15008KT 10SM BKN055 24/21 A3014 RMK AO2
KECU 180855Z AUTO 16009KT 10SM OVC060 24/21 A3014 RMK AO2
KECU 180835Z AUTO 15009KT 10SM BKN060 25/21 A3014 RMK AO2
KECU 180815Z AUTO 15010KT 10SM CLR 25/20 A3014 RMK AO2
KECU 180755Z AUTO 15011KT 10SM CLR 25/20 A3014 RMK AO2
KECU 180735Z AUTO 15010KT 9SM CLR 25/19 A3014 RMK AO2
KECU 180715Z AUTO 15010KT 8SM CLR 26/18 A3014 RMK AO2
KECU 180655Z AUTO 15009KT 9SM CLR 26/17 A3014 RMK AO2
KECU 180635Z AUTO 15009G16KT 9SM CLR 27/16 A3014 RMK AO2
KECU 180615Z AUTO 15010G16KT 8SM CLR 27/15 A3014 RMK AO2
KECU 180555Z AUTO 14009KT 7SM CLR 27/15 A3013 RMK AO2
KECU 180535Z AUTO 15008KT 7SM CLR 27/13 A3013 RMK AO2
KECU 180515Z AUTO 14008KT 7SM CLR 28/13 A3013 RMK AO2
KECU 180455Z AUTO 15007KT 8SM CLR 28/13 A3013 RMK AO2
KECU 180435Z AUTO 14008KT 10SM CLR 27/13 A3013 RMK AO2
KECU 180415Z AUTO 13005KT 10SM CLR 27/12 A3013 RMK AO2
KECU 180355Z AUTO 12005KT 10SM FEW050 SCT060 27/12 A3013 RMK AO2
KECU 180335Z AUTO 12004KT 10SM SCT055 SCT065 28/12 A3012 RMK AO2
KECU 180315Z AUTO 13005KT 10SM SCT060 29/12 A3012 RMK AO2
KECU 180255Z AUTO 13005KT 10SM FEW044 FEW049 SCT060 29/12 A3011 RMK AO2
KECU 180235Z AUTO 13005KT 10SM FEW060 30/12 A3011 RMK AO2
KECU 180215Z AUTO 14008KT 10SM CLR 31/12 A3010 RMK AO2
KECU 180155Z AUTO 14007G12KT 10SM CLR 31/12 A3010 RMK AO2
KECU 180135Z AUTO 16011KT 9SM CLR 32/12 A3010 RMK AO2
KECU 180115Z AUTO 14009G14KT 10SM CLR 33/12 A3010 RMK AO2
KECU 180055Z AUTO 16012KT 10SM CLR 33/12 A3010 RMK AO2
KECU 180035Z AUTO 15010G15KT 10SM CLR 34/12 A3010 RMK AO2
KECU 180015Z AUTO 16008G14KT 10SM CLR 34/12 A3009 RMK AO2
KECU 172355Z AUTO 14008KT 10SM CLR 35/13 A3009 RMK AO2
KECU 172335Z AUTO VRB06G15KT 9SM CLR 35/12 A3010 RMK AO2
KECU 172315Z AUTO 18007KT 140V200 9SM CLR 36/12 A3010 RMK AO2
KECU 172255Z AUTO 15008G14KT 10SM CLR 36/12 A3011 RMK AO2
KECU 172235Z AUTO 15010KT 9SM CLR 36/11 A3011 RMK AO2
KECU 172215Z AUTO 15010KT 10SM CLR 36/11 A3011 RMK AO2
KECU 172155Z AUTO 11008G16KT 080V140 10SM CLR 36/07 A3012 RMK AO2
KECU 172135Z AUTO 16008KT 120V190 10SM CLR 36/11 A3012 RMK AO2
KECU 172115Z AUTO 14008KT 110V170 9SM CLR 35/12 A3013 RMK AO2
KECU 172055Z AUTO 13007G14KT 100V170 9SM CLR 35/14 A3013 RMK AO2
KECU 172035Z AUTO 13009KT 080V160 9SM CLR 35/14 A3014 RMK AO2
KECU 172015Z AUTO 11007KT 060V150 9SM CLR 34/14 A3015 RMK AO2
KECU 171955Z AUTO 17008KT 9SM CLR 34/15 A3016 RMK AO2
KECU 171935Z AUTO VRB06G12KT 10SM CLR 34/16 A3016 RMK AO2
KECU 171915Z AUTO VRB04KT 10SM CLR 33/16 A3016 RMK AO2
KECU 171855Z AUTO VRB04G10KT 9SM CLR 33/16 A3017 RMK AO2
KECU 171835Z AUTO 15008KT 9SM CLR 33/17 A3018 RMK AO2
KECU 171815Z AUTO 13008KT 120V190 10SM CLR 32/16 A3018 RMK AO2
KECU 171755Z AUTO 17008KT 130V200 9SM CLR 32/17 A3019 RMK AO2
KECU 171735Z AUTO VRB06G12KT 9SM CLR 31/18 A3019 RMK AO2
KECU 171715Z AUTO 17009KT 10SM CLR 31/18 A3019 RMK AO2
KECU 171655Z AUTO 17008KT 10SM CLR 30/19 A3020 RMK AO2
KECU 171635Z AUTO 14007G13KT 120V190 10SM CLR 29/19 A3020 RMK AO2
KECU 171615Z AUTO 17006KT 9SM CLR 28/19 A3020 RMK AO2
KECU 171555Z AUTO 15008KT 10SM CLR 28/19 A3020 RMK AO2
KECU 171535Z AUTO 17007KT 9SM CLR 27/19 A3021 RMK AO2
KECU 171515Z AUTO 15010KT 9SM CLR 26/19 A3020 RMK AO2
KECU 171455Z AUTO 16008KT 10SM CLR 26/19 A3021 RMK AO2
KECU 171435Z AUTO 16008KT 9SM CLR 25/19 A3021 RMK AO2
KECU 171415Z AUTO 15009KT 10SM CLR 24/19 A3021 RMK AO2